Time,TemperatureF,DewpointF,PressureIn,WindDirection,WindDirectionDegrees,WindSpeedMPH,WindSpeedGustMPH,Humidity,HourlyPrecipIn,Conditions,Clouds,dailyrainin,SoftwareType,DateUTC
2013-06-21 00:02:00,70.7,65.6,30.24,ENE,67,0.0,0.0,84,0.00,,,0.00,WUHU21523XXSP,2013-06-21 04:02:00,
2013-06-21 00:07:00,70.5,65.4,30.24,ENE,67,0.0,0.0,84,0.00,,,0.00,WUHU21523XXSP,2013-06-21 04:07:00,
2013-06-21 00:12:00,70.5,65.8,30.25,ENE,67,0.0,0.0,85,0.00,,,0.00,WUHU21523XXSP,2013-06-21 04:12:00,
2013-06-21 00:17:00,70.5,65.8,30.24,ENE,67,0.0,0.0,85,0.00,,,0.00,WUHU21523XXSP,2013-06-21 04:17:00,
2013-06-21 00:22:00,70.5,65.8,30.25,ENE,67,0.0,0.0,85,0.00,,,0.00,WUHU21523XXSP,2013-06-21 04:22:00,
2013-06-21 00:27:00,70.5,65.8,30.25,ENE,67,0.0,0.0,85,0.00,,,0.00,WUHU21523XXSP,2013-06-21 04:27:00,
2013-06-21 00:32:00,70.5,65.8,30.25,ENE,67,0.0,0.0,85,0.00,,,0.00,WUHU21523XXSP,2013-06-21 04:32:00,
2013-06-21 00:37:00,70.5,65.8,30.25,ENE,67,0.0,0.0,85,0.00,,,0.00,WUHU21523XXSP,2013-06-21 04:37:00,
2013-06-21 00:42:00,70.5,65.8,30.25,ENE,67,0.0,0.0,85,0.00,,,0.00,WUHU21523XXSP,2013-06-21 04:42:00,
2013-06-21 00:47:00,70.5,65.8,30.25,ENE,67,0.0,0.0,85,0.00,,,0.00,WUHU21523XXSP,2013-06-21 04:47:00,
2013-06-21 00:52:00,70.5,65.8,30.25,ENE,67,0.0,0.0,85,0.00,,,0.00,WUHU21523XXSP,2013-06-21 04:52:00,
2013-06-21 00:57:00,70.5,65.8,30.25,ENE,67,0.0,0.0,85,0.00,,,0.00,WUHU21523XXSP,2013-06-21 04:57:00,
2013-06-21 01:02:00,70.5,65.8,30.24,ENE,67,0.0,0.0,85,0.00,,,0.00,WUHU21523XXSP,2013-06-21 05:02:00,
2013-06-21 01:07:00,70.5,65.8,30.25,ENE,67,0.0,0.0,85,0.00,,,0.00,WUHU21523XXSP,2013-06-21 05:07:00,
2013-06-21 01:12:00,70.5,65.8,30.25,ENE,67,0.0,0.0,85,0.00,,,0.00,WUHU21523XXSP,2013-06-21 05:12:00,
2013-06-21 01:17:00,70.3,65.6,30.25,ENE,67,0.0,0.0,85,0.00,,,0.00,WUHU21523XXSP,2013-06-21 05:17:00,
2013-06-21 01:22:00,70.3,65.6,30.25,ENE,67,0.0,0.0,85,0.00,,,0.00,WUHU21523XXSP,2013-06-21 05:22:00,
2013-06-21 01:27:00,70.3,65.6,30.25,ENE,67,0.0,0.0,85,0.00,,,0.00,WUHU21523XXSP,2013-06-21 05:27:00,
2013-06-21 01:32:00,70.3,65.6,30.25,SW,225,0.9,0.9,85,0.00,,,0.00,WUHU21523XXSP,2013-06-21 05:32:00,
2013-06-21 01:37:00,70.3,65.6,30.25,SW,225,0.0,0.9,85,0.00,,,0.00,WUHU21523XXSP,2013-06-21 05:37:00,
2013-06-21 01:42:00,70.2,65.4,30.25,SW,225,0.0,0.0,85,0.00,,,0.00,WUHU21523XXSP,2013-06-21 05:42:00,
2013-06-21 01:47:00,70.2,65.4,30.24,SW,225,0.0,0.0,85,0.00,,,0.00,WUHU21523XXSP,2013-06-21 05:47:00,
2013-06-21 01:52:00,70.2,65.4,30.25,SW,225,0.0,0.0,85,0.00,,,0.00,WUHU21523XXSP,2013-06-21 05:52:00,
2013-06-21 01:57:00,70.0,65.2,30.24,SW,225,0.0,0.0,85,0.00,,,0.00,WUHU21523XXSP,2013-06-21 05:57:00,
2013-06-21 02:02:00,70.0,65.2,30.24,SW,225,0.0,0.0,85,0.00,,,0.00,WUHU21523XXSP,2013-06-21 06:02:00,
2013-06-21 02:07:00,70.0,65.2,30.25,SW,225,0.0,0.0,85,0.00,,,0.00,WUHU21523XXSP,2013-06-21 06:07:00,
2013-06-21 02:12:00,69.6,64.8,30.25,SW,225,0.0,0.0,85,0.00,,,0.00,WUHU21523XXSP,2013-06-21 06:12:00,
2013-06-21 02:17:00,69.6,64.8,30.25,East,90,0.0,0.0,85,0.00,,,0.00,WUHU21523XXSP,2013-06-21 06:17:00,
2013-06-21 02:22:00,69.6,64.8,30.24,East,90,0.0,0.0,85,0.00,,,0.00,WUHU21523XXSP,2013-06-21 06:22:00,
2013-06-21 02:27:00,69.6,64.8,30.24,East,90,0.0,0.0,85,0.00,,,0.00,WUHU21523XXSP,2013-06-21 06:27:00,
2013-06-21 02:32:00,69.4,64.7,30.24,East,90,0.0,0.0,85,0.00,,,0.00,WUHU21523XXSP,2013-06-21 06:32:00,
2013-06-21 02:37:00,69.4,64.3,30.24,East,90,0.0,0.0,84,0.00,,,0.00,WUHU21523XXSP,2013-06-21 06:37:00,
2013-06-21 02:42:00,69.3,64.2,30.25,East,90,0.0,0.0,84,0.00,,,0.00,WUHU21523XXSP,2013-06-21 06:42:00,
2013-06-21 02:47:00,69.1,64.0,30.24,East,90,0.0,0.0,84,0.00,,,0.00,WUHU21523XXSP,2013-06-21 06:47:00,
2013-06-21 02:52:00,69.1,64.0,30.25,East,90,0.0,0.0,84,0.00,,,0.00,WUHU21523XXSP,2013-06-21 06:52:00,
2013-06-21 02:57:00,68.9,63.8,30.24,East,90,0.0,0.0,84,0.00,,,0.00,WUHU21523XXSP,2013-06-21 06:57:00,
2013-06-21 03:02:00,68.7,63.7,30.25,East,90,0.0,0.0,84,0.00,,,0.00,WUHU21523XXSP,2013-06-21 07:02:00,
2013-06-21 03:07:00,68.5,63.5,30.25,East,90,0.0,0.0,84,0.00,,,0.00,WUHU21523XXSP,2013-06-21 07:07:00,
2013-06-21 03:12:00,68.4,63.3,30.25,East,90,0.0,0.0,84,0.00,,,0.00,WUHU21523XXSP,2013-06-21 07:12:00,
2013-06-21 03:17:00,68.4,63.3,30.24,East,90,0.0,0.0,84,0.00,,,0.00,WUHU21523XXSP,2013-06-21 07:17:00,
2013-06-21 03:22:00,68.2,63.2,30.24,East,90,0.0,0.0,84,0.00,,,0.00,WUHU21523XXSP,2013-06-21 07:22:00,
2013-06-21 03:27:00,68.0,63.0,30.24,East,90,0.0,0.0,84,0.00,,,0.00,WUHU21523XXSP,2013-06-21 07:27:00,
2013-06-21 03:32:00,67.8,63.1,30.25,East,90,0.0,0.0,85,0.00,,,0.00,WUHU21523XXSP,2013-06-21 07:32:00,
2013-06-21 03:37:00,67.8,63.1,30.25,East,90,0.0,0.0,85,0.00,,,0.00,WUHU21523XXSP,2013-06-21 07:37:00,
2013-06-21 03:42:00,67.6,63.0,30.25,East,90,0.0,13.2,85,0.00,,,0.00,WUHU21523XXSP,2013-06-21 07:42:00,
2013-06-21 03:47:00,67.5,62.8,30.25,East,90,0.0,13.2,85,0.00,,,0.00,WUHU21523XXSP,2013-06-21 07:47:00,
2013-06-21 03:52:00,67.3,62.6,30.25,East,90,0.0,0.0,85,0.00,,,0.00,WUHU21523XXSP,2013-06-21 07:52:00,
2013-06-21 03:57:00,67.3,62.6,30.25,East,90,0.0,0.0,85,0.00,,,0.00,WUHU21523XXSP,2013-06-21 07:57:00,
2013-06-21 04:02:00,67.1,62.4,30.25,East,90,0.0,0.0,85,0.00,,,0.00,WUHU21523XXSP,2013-06-21 08:02:00,
2013-06-21 04:07:00,67.1,62.1,30.25,East,90,0.0,0.0,84,0.00,,,0.00,WUHU21523XXSP,2013-06-21 08:07:00,
2013-06-21 04:17:00,66.7,62.1,30.25,East,90,0.0,0.0,85,0.00,,,0.00,WUHU21523XXSP,2013-06-21 08:17:00,
2013-06-21 04:22:00,66.7,62.1,30.25,East,90,0.0,0.0,85,0.00,,,0.00,WUHU21523XXSP,2013-06-21 08:22:00,
2013-06-21 04:27:00,66.6,61.9,30.25,East,90,0.0,0.0,85,0.00,,,0.00,WUHU21523XXSP,2013-06-21 08:27:00,
2013-06-21 04:32:00,66.6,61.9,30.25,East,90,0.0,0.0,85,0.00,,,0.00,WUHU21523XXSP,2013-06-21 08:32:00,
2013-06-21 04:37:00,66.4,61.7,30.25,East,90,16.3,16.3,85,0.00,,,0.00,WUHU21523XXSP,2013-06-21 08:37:00,
2013-06-21 04:42:00,66.4,61.7,30.25,East,90,0.0,16.3,85,0.00,,,0.00,WUHU21523XXSP,2013-06-21 08:42:00,
2013-06-21 04:47:00,66.2,61.5,30.25,East,90,0.0,0.0,85,0.00,,,0.00,WUHU21523XXSP,2013-06-21 08:47:00,
2013-06-21 04:52:00,66.2,61.5,30.25,East,90,12.8,12.8,85,0.00,,,0.00,WUHU21523XXSP,2013-06-21 08:52:00,
2013-06-21 04:57:00,66.0,61.3,30.25,East,90,0.0,12.8,85,0.00,,,0.00,WUHU21523XXSP,2013-06-21 08:57:00,
2013-06-21 05:02:00,66.0,61.3,30.25,East,90,0.0,12.8,85,0.00,,,0.00,WUHU21523XXSP,2013-06-21 09:02:00,
2013-06-21 05:07:00,65.8,61.2,30.25,East,90,0.0,0.0,85,0.00,,,0.00,WUHU21523XXSP,2013-06-21 09:07:00,
2013-06-21 05:12:00,65.5,60.8,30.25,East,90,0.0,0.0,85,0.00,,,0.00,WUHU21523XXSP,2013-06-21 09:12:00,
2013-06-21 05:17:00,65.5,60.8,30.25,East,90,0.0,0.0,85,0.00,,,0.00,WUHU21523XXSP,2013-06-21 09:17:00,
2013-06-21 05:22:00,65.5,60.8,30.25,East,90,0.0,0.0,85,0.00,,,0.00,WUHU21523XXSP,2013-06-21 09:22:00,
2013-06-21 05:27:00,65.3,60.7,30.26,East,90,0.0,0.0,85,0.00,,,0.00,WUHU21523XXSP,2013-06-21 09:27:00,
2013-06-21 05:32:00,65.1,60.5,30.26,East,90,0.0,0.0,85,0.00,,,0.00,WUHU21523XXSP,2013-06-21 09:32:00,
2013-06-21 05:37:00,65.1,60.5,30.26,East,90,0.0,0.0,85,0.00,,,0.00,WUHU21523XXSP,2013-06-21 09:37:00,
2013-06-21 05:42:00,64.9,60.5,30.26,East,90,0.0,0.0,85,0.00,,,0.00,WUHU21523XXSP,2013-06-21 09:42:00,
2013-06-21 05:47:00,64.9,60.3,30.26,East,90,0.0,0.0,85,0.00,,,0.00,WUHU21523XXSP,2013-06-21 09:47:00,
2013-06-21 05:52:00,64.9,60.7,30.26,East,90,0.0,0.0,86,0.00,,,0.00,WUHU21523XXSP,2013-06-21 09:52:00,
2013-06-21 05:57:00,64.8,60.5,30.26,East,90,0.0,0.0,86,0.00,,,0.00,WUHU21523XXSP,2013-06-21 09:57:00,
2013-06-21 06:02:00,64.8,60.5,30.26,East,90,0.0,0.0,86,0.00,,,0.00,WUHU21523XXSP,2013-06-21 10:02:00,
2013-06-21 06:07:00,64.6,60.5,30.26,East,90,0.0,0.0,86,0.00,,,0.00,WUHU21523XXSP,2013-06-21 10:07:00,
2013-06-21 06:12:00,64.6,60.3,30.26,East,90,0.0,0.0,86,0.00,,,0.00,WUHU21523XXSP,2013-06-21 10:12:00,
2013-06-21 06:17:00,64.6,60.3,30.26,East,90,0.0,0.0,86,0.00,,,0.00,WUHU21523XXSP,2013-06-21 10:17:00,
2013-06-21 06:22:00,64.6,60.3,30.26,East,90,0.0,0.0,86,0.00,,,0.00,WUHU21523XXSP,2013-06-21 10:22:00,
2013-06-21 06:27:00,64.6,60.3,30.26,East,90,0.0,0.0,86,0.00,,,0.00,WUHU21523XXSP,2013-06-21 10:27:00,
2013-06-21 06:32:00,64.6,60.3,30.27,East,90,0.0,0.0,86,0.00,,,0.00,WUHU21523XXSP,2013-06-21 10:32:00,
2013-06-21 06:37:00,64.6,60.3,30.27,East,90,0.0,0.0,86,0.00,,,0.00,WUHU21523XXSP,2013-06-21 10:37:00,
2013-06-21 06:42:00,64.2,60.0,30.27,East,90,0.0,0.0,86,0.00,,,0.00,WUHU21523XXSP,2013-06-21 10:42:00,
2013-06-21 06:47:00,64.2,60.0,30.27,East,90,10.7,10.7,86,0.00,,,0.00,WUHU21523XXSP,2013-06-21 10:47:00,
2013-06-21 06:52:00,64.2,60.0,30.27,East,90,0.0,10.7,86,0.00,,,0.00,WUHU21523XXSP,2013-06-21 10:52:00,
2013-06-21 06:57:00,64.2,60.0,30.27,East,90,0.0,0.0,86,0.00,,,0.00,WUHU21523XXSP,2013-06-21 10:57:00,
2013-06-21 07:02:00,64.2,60.0,30.27,East,90,0.0,0.0,86,0.00,,,0.00,WUHU21523XXSP,2013-06-21 11:02:00,
2013-06-21 07:07:00,64.2,60.0,30.27,East,90,0.0,0.0,86,0.00,,,0.00,WUHU21523XXSP,2013-06-21 11:07:00,
2013-06-21 07:12:00,64.2,60.0,30.27,East,90,0.0,0.0,86,0.00,,,0.00,WUHU21523XXSP,2013-06-21 11:12:00,
2013-06-21 07:17:00,64.2,60.0,30.27,East,90,0.0,0.0,86,0.00,,,0.00,WUHU21523XXSP,2013-06-21 11:17:00,
2013-06-21 07:22:00,64.2,60.0,30.27,East,90,0.0,0.0,86,0.00,,,0.00,WUHU21523XXSP,2013-06-21 11:22:00,
2013-06-21 07:27:00,64.2,60.3,30.27,East,90,0.0,0.0,87,0.00,,,0.00,WUHU21523XXSP,2013-06-21 11:27:00,
2013-06-21 07:32:00,64.4,60.5,30.27,East,90,13.0,13.0,87,0.00,,,0.00,WUHU21523XXSP,2013-06-21 11:32:00,
2013-06-21 07:37:00,64.6,60.7,30.28,East,90,9.8,13.0,87,0.00,,,0.00,WUHU21523XXSP,2013-06-21 11:37:00,
2013-06-21 07:42:00,64.6,60.7,30.28,East,90,0.0,28.6,87,0.00,,,0.00,WUHU21523XXSP,2013-06-21 11:42:00,
2013-06-21 07:47:00,64.8,60.8,30.27,East,90,0.0,28.6,87,0.00,,,0.00,WUHU21523XXSP,2013-06-21 11:47:00,
2013-06-21 07:52:00,64.8,60.8,30.28,East,90,18.3,18.3,87,0.00,,,0.00,WUHU21523XXSP,2013-06-21 11:52:00,
2013-06-21 07:57:00,64.9,60.7,30.28,East,90,18.1,18.3,86,0.00,,,0.00,WUHU21523XXSP,2013-06-21 11:57:00,
2013-06-21 08:02:00,64.9,60.7,30.28,East,90,18.1,18.1,86,0.00,,,0.00,WUHU21523XXSP,2013-06-21 12:02:00,
2013-06-21 08:07:00,65.1,60.8,30.28,East,90,0.0,18.1,86,0.00,,,0.00,WUHU21523XXSP,2013-06-21 12:07:00,
2013-06-21 08:12:00,65.1,60.8,30.28,East,90,0.0,0.0,86,0.00,,,0.00,WUHU21523XXSP,2013-06-21 12:12:00,
2013-06-21 08:17:00,65.1,60.8,30.28,East,90,0.0,0.0,86,0.00,,,0.00,WUHU21523XXSP,2013-06-21 12:17:00,
2013-06-21 08:22:00,65.3,61.0,30.28,East,90,0.0,0.0,86,0.00,,,0.00,WUHU21523XXSP,2013-06-21 12:22:00,
2013-06-21 08:27:00,65.5,61.2,30.28,SSE,157,0.0,0.0,86,0.00,,,0.00,WUHU21523XXSP,2013-06-21 12:27:00,
2013-06-21 08:32:00,65.7,61.3,30.28,SSE,157,0.0,0.0,86,0.00,,,0.00,WUHU21523XXSP,2013-06-21 12:32:00,
2013-06-21 08:37:00,65.7,61.3,30.28,SSE,157,0.0,0.0,86,0.00,,,0.00,WUHU21523XXSP,2013-06-21 12:37:00,
2013-06-21 08:42:00,65.8,61.5,30.28,SSE,157,0.0,0.0,86,0.00,,,0.00,WUHU21523XXSP,2013-06-21 12:42:00,
2013-06-21 08:47:00,66.0,61.7,30.28,SSE,157,0.0,0.0,86,0.00,,,0.00,WUHU21523XXSP,2013-06-21 12:47:00,
2013-06-21 08:52:00,66.0,61.7,30.28,NNE,22,0.0,0.0,86,0.00,,,0.00,WUHU21523XXSP,2013-06-21 12:52:00,
2013-06-21 08:57:00,66.4,61.8,30.28,NNE,22,0.0,0.0,85,0.00,,,0.00,WUHU21523XXSP,2013-06-21 12:57:00,
2013-06-21 09:02:00,66.4,61.7,30.28,NE,45,0.0,0.0,85,0.00,,,0.00,WUHU21523XXSP,2013-06-21 13:02:00,
2013-06-21 09:07:00,66.6,61.9,30.28,NE,45,0.0,0.0,85,0.00,,,0.00,WUHU21523XXSP,2013-06-21 13:07:00,
2013-06-21 09:12:00,66.7,62.1,30.28,NE,45,0.0,0.0,85,0.00,,,0.00,WUHU21523XXSP,2013-06-21 13:12:00,
2013-06-21 09:17:00,66.9,61.9,30.28,NE,45,0.0,0.0,84,0.00,,,0.00,WUHU21523XXSP,2013-06-21 13:17:00,
2013-06-21 09:22:00,67.3,62.6,30.28,SSW,202,2.9,2.9,85,0.00,,,0.00,WUHU21523XXSP,2013-06-21 13:22:00,
2013-06-21 09:27:00,67.3,62.6,30.28,SSW,202,0.0,2.9,85,0.00,,,0.00,WUHU21523XXSP,2013-06-21 13:27:00,
2013-06-21 09:32:00,67.8,62.8,30.28,SSW,202,0.0,0.0,84,0.00,,,0.00,WUHU21523XXSP,2013-06-21 13:32:00,
2013-06-21 09:37:00,67.8,62.5,30.28,NNE,22,0.0,0.0,83,0.00,,,0.00,WUHU21523XXSP,2013-06-21 13:37:00,
2013-06-21 09:42:00,68.0,62.7,30.28,NNE,22,0.0,0.0,83,0.00,,,0.00,WUHU21523XXSP,2013-06-21 13:42:00,
2013-06-21 09:47:00,68.4,63.0,30.27,NNE,22,0.0,0.0,83,0.00,,,0.00,WUHU21523XXSP,2013-06-21 13:47:00,
2013-06-21 09:52:00,68.5,63.2,30.27,NNE,22,0.0,0.0,83,0.00,,,0.00,WUHU21523XXSP,2013-06-21 13:52:00,
2013-06-21 09:57:00,68.7,63.3,30.27,NNE,22,0.0,0.0,83,0.00,,,0.00,WUHU21523XXSP,2013-06-21 13:57:00,
2013-06-21 10:02:00,68.9,63.5,30.27,South,180,0.0,0.0,83,0.00,,,0.00,WUHU21523XXSP,2013-06-21 14:02:00,
2013-06-21 10:07:00,69.3,63.8,30.26,SSW,202,0.0,0.0,83,0.00,,,0.00,WUHU21523XXSP,2013-06-21 14:07:00,
2013-06-21 10:17:00,69.8,64.0,30.27,ENE,67,0.0,0.0,82,0.00,,,0.00,WUHU21523XXSP,2013-06-21 14:17:00,
2013-06-21 10:22:00,70.0,64.2,30.27,East,90,0.0,0.0,82,0.00,,,0.00,WUHU21523XXSP,2013-06-21 14:22:00,
2013-06-21 10:27:00,70.3,64.5,30.26,SW,225,0.0,0.0,82,0.00,,,0.00,WUHU21523XXSP,2013-06-21 14:27:00,
2013-06-21 10:32:00,70.7,64.6,30.27,SSW,202,0.0,0.0,81,0.00,,,0.00,WUHU21523XXSP,2013-06-21 14:32:00,
2013-06-21 10:37:00,71.1,64.9,30.27,North,0,0.0,0.0,81,0.00,,,0.00,WUHU21523XXSP,2013-06-21 14:37:00,
2013-06-21 10:42:00,71.2,65.1,30.27,North,0,0.0,0.0,81,0.00,,,0.00,WUHU21523XXSP,2013-06-21 14:42:00,
2013-06-21 10:47:00,71.4,65.3,30.26,North,0,0.0,0.0,81,0.00,,,0.00,WUHU21523XXSP,2013-06-21 14:47:00,
2013-06-21 10:52:00,71.8,65.6,30.26,ENE,67,0.0,0.0,81,0.00,,,0.00,WUHU21523XXSP,2013-06-21 14:52:00,
2013-06-21 10:57:00,72.0,65.5,30.27,SW,225,0.0,0.0,80,0.00,,,0.00,WUHU21523XXSP,2013-06-21 14:57:00,
2013-06-21 11:02:00,72.3,65.5,30.27,SW,225,0.0,0.0,79,0.00,,,0.00,WUHU21523XXSP,2013-06-21 15:02:00,
2013-06-21 11:07:00,72.5,65.6,30.26,SSW,202,0.0,0.0,79,0.00,,,0.00,WUHU21523XXSP,2013-06-21 15:07:00,
2013-06-21 11:12:00,72.7,65.8,30.26,SW,225,0.0,0.0,79,0.00,,,0.00,WUHU21523XXSP,2013-06-21 15:12:00,
2013-06-21 11:17:00,73.0,66.2,30.26,SW,225,0.0,0.0,79,0.00,,,0.00,WUHU21523XXSP,2013-06-21 15:17:00,
2013-06-21 11:22:00,73.2,66.0,30.27,SSW,202,0.0,0.0,78,0.00,,,0.00,WUHU21523XXSP,2013-06-21 15:22:00,
2013-06-21 11:27:00,73.6,66.3,30.26,SSW,202,0.0,0.0,78,0.00,,,0.00,WUHU21523XXSP,2013-06-21 15:27:00,
2013-06-21 11:32:00,73.9,67.1,30.26,ENE,67,0.0,0.0,79,0.00,,,0.00,WUHU21523XXSP,2013-06-21 15:32:00,
2013-06-21 11:37:00,74.1,66.9,30.26,South,180,1.6,1.6,78,0.00,,,0.00,WUHU21523XXSP,2013-06-21 15:37:00,
2013-06-21 11:47:00,74.5,66.8,30.26,WNW,292,0.0,0.0,77,0.00,,,0.00,WUHU21523XXSP,2013-06-21 15:47:00,
2013-06-21 11:52:00,74.7,67.0,30.26,SW,225,0.0,0.0,77,0.00,,,0.00,WUHU21523XXSP,2013-06-21 15:52:00,
2013-06-21 11:57:00,74.8,66.8,30.26,SW,225,0.0,0.0,76,0.00,,,0.00,WUHU21523XXSP,2013-06-21 15:57:00,
2013-06-21 12:02:00,75.0,67.4,30.27,SW,225,0.0,0.0,77,0.00,,,0.00,WUHU21523XXSP,2013-06-21 16:02:00,
2013-06-21 12:07:00,75.4,67.3,30.26,NW,315,0.0,0.0,76,0.00,,,0.00,WUHU21523XXSP,2013-06-21 16:07:00,
2013-06-21 12:12:00,75.6,67.5,30.25,NE,45,0.0,0.0,76,0.00,,,0.00,WUHU21523XXSP,2013-06-21 16:12:00,
2013-06-21 12:17:00,75.9,67.8,30.26,NE,45,0.0,0.0,76,0.00,,,0.00,WUHU21523XXSP,2013-06-21 16:17:00,
2013-06-21 12:22:00,76.3,68.1,30.26,South,180,3.6,3.6,76,0.00,,,0.00,WUHU21523XXSP,2013-06-21 16:22:00,
2013-06-21 12:27:00,76.5,68.1,30.26,NE,45,0.0,3.6,76,0.00,,,0.00,WUHU21523XXSP,2013-06-21 16:27:00,
2013-06-21 12:32:00,76.8,68.6,30.25,ENE,74,0.8,2.2,76,0.00,,,0.00,WUHU21523XXSP,2013-06-21 16:32:00,
2013-06-21 12:37:00,76.8,68.3,30.25,WSW,247,0.0,2.2,75,0.00,,,0.00,WUHU21523XXSP,2013-06-21 16:37:00,
2013-06-21 12:42:00,77.0,68.1,30.25,South,180,3.8,3.8,74,0.00,,,0.00,WUHU21523XXSP,2013-06-21 16:42:00,
2013-06-21 12:52:00,77.7,68.7,30.26,SSW,202,0.0,0.0,74,0.00,,,0.00,WUHU21523XXSP,2013-06-21 16:52:00,
2013-06-21 12:57:00,77.9,68.9,30.26,SW,225,0.0,0.0,74,0.00,,,0.00,WUHU21523XXSP,2013-06-21 16:57:00,
2013-06-21 13:02:00,78.1,69.1,30.26,WSW,247,0.0,0.0,74,0.00,,,0.00,WUHU21523XXSP,2013-06-21 17:02:00,
2013-06-21 13:07:00,78.4,69.0,30.26,NE,45,0.0,0.0,73,0.00,,,0.00,WUHU21523XXSP,2013-06-21 17:07:00,
2013-06-21 13:13:00,78.4,69.0,30.26,NE,45,0.0,0.0,73,0.00,,,0.00,WUHU21523XXSP,2013-06-21 17:13:00,
2013-06-21 13:22:00,79.0,69.2,30.26,SW,225,0.0,0.0,72,0.00,,,0.00,WUHU21523XXSP,2013-06-21 17:22:00,
2013-06-21 13:27:00,79.0,69.9,30.26,ENE,67,0.0,0.0,74,0.00,,,0.00,WUHU21523XXSP,2013-06-21 17:27:00,
2013-06-21 13:32:00,79.5,70.5,30.26,NNW,337,0.0,0.0,74,0.00,,,0.00,WUHU21523XXSP,2013-06-21 17:32:00,
2013-06-21 13:37:00,79.5,69.7,30.26,North,0,2.0,2.0,72,0.00,,,0.00,WUHU21523XXSP,2013-06-21 17:37:00,
2013-06-21 13:42:00,79.7,69.9,30.26,NNE,22,0.0,2.0,72,0.00,,,0.00,WUHU21523XXSP,2013-06-21 17:42:00,
2013-06-21 13:47:00,79.9,69.3,30.25,SW,225,0.0,0.0,70,0.00,,,0.00,WUHU21523XXSP,2013-06-21 17:47:00,
2013-06-21 13:52:00,80.1,69.0,30.25,SW,225,0.0,0.0,69,0.00,,,0.00,WUHU21523XXSP,2013-06-21 17:52:00,
2013-06-21 13:57:00,80.2,69.6,30.25,ENE,67,0.0,0.0,70,0.00,,,0.00,WUHU21523XXSP,2013-06-21 17:57:00,
2013-06-21 14:02:00,80.8,69.7,30.25,WSW,247,0.0,4.7,69,0.00,,,0.00,WUHU21523XXSP,2013-06-21 18:02:00,
2013-06-21 14:07:00,80.8,69.7,30.25,ESE,112,0.0,4.7,69,0.00,,,0.00,WUHU21523XXSP,2013-06-21 18:07:00,
2013-06-21 14:12:00,81.1,70.0,30.25,SSE,157,5.1,5.1,69,0.00,,,0.00,WUHU21523XXSP,2013-06-21 18:12:00,
2013-06-21 14:17:00,81.3,69.1,30.24,South,180,0.0,5.1,67,0.00,,,0.00,WUHU21523XXSP,2013-06-21 18:17:00,
2013-06-21 14:27:00,81.3,68.8,30.25,SW,225,2.2,2.2,66,0.00,,,0.00,WUHU21523XXSP,2013-06-21 18:27:00,
2013-06-21 14:32:00,81.3,68.8,30.24,ESE,112,0.0,2.2,66,0.00,,,0.00,WUHU21523XXSP,2013-06-21 18:32:00,
2013-06-21 14:37:00,81.3,68.8,30.24,ENE,67,0.0,1.1,66,0.00,,,0.00,WUHU21523XXSP,2013-06-21 18:37:00,
2013-06-21 14:47:00,81.7,69.6,30.24,NE,45,0.0,4.9,67,0.00,,,0.00,WUHU21523XXSP,2013-06-21 18:47:00,
2013-06-21 14:52:00,81.7,69.6,30.25,NNE,22,0.0,0.0,67,0.00,,,0.00,WUHU21523XXSP,2013-06-21 18:52:00,
2013-06-21 14:57:00,81.7,69.2,30.24,WSW,247,1.6,1.6,66,0.00,,,0.00,WUHU21523XXSP,2013-06-21 18:57:00,
2013-06-21 15:02:00,81.9,68.4,30.24,SSW,202,0.0,1.6,64,0.00,,,0.00,WUHU21523XXSP,2013-06-21 19:02:00,
2013-06-21 15:07:00,82.0,68.6,30.24,NE,45,0.0,0.0,64,0.00,,,0.00,WUHU21523XXSP,2013-06-21 19:07:00,
2013-06-21 15:12:00,82.0,69.0,30.24,NNE,22,0.0,0.0,65,0.00,,,0.00,WUHU21523XXSP,2013-06-21 19:12:00,
2013-06-21 15:17:00,82.0,68.6,30.23,SSW,202,0.0,0.0,64,0.00,,,0.00,WUHU21523XXSP,2013-06-21 19:17:00,
2013-06-21 15:22:00,82.0,68.1,30.23,SW,225,0.9,0.9,63,0.00,,,0.00,WUHU21523XXSP,2013-06-21 19:22:00,
2013-06-21 15:27:00,82.0,68.6,30.23,SE,135,0.0,0.9,64,0.00,,,0.00,WUHU21523XXSP,2013-06-21 19:27:00,
2013-06-21 15:32:00,82.2,68.7,30.23,SSW,202,0.7,0.7,64,0.00,,,0.00,WUHU21523XXSP,2013-06-21 19:32:00,
2013-06-21 15:37:00,82.2,68.7,30.23,SSW,202,0.7,0.7,64,0.00,,,0.00,WUHU21523XXSP,2013-06-21 19:37:00,
2013-06-21 15:42:00,82.2,68.7,30.23,SSW,202,5.4,5.4,64,0.00,,,0.00,WUHU21523XXSP,2013-06-21 19:42:00,
2013-06-21 15:47:00,82.6,68.6,30.23,SSW,202,0.0,5.4,63,0.00,,,0.00,WUHU21523XXSP,2013-06-21 19:47:00,
2013-06-21 15:57:00,82.6,69.1,30.22,SW,225,0.9,0.9,64,0.00,,,0.00,WUHU21523XXSP,2013-06-21 19:57:00,
2013-06-21 16:02:00,82.8,68.8,30.22,SSW,202,2.9,2.9,63,0.00,,,0.00,WUHU21523XXSP,2013-06-21 20:02:00,
2013-06-21 16:07:00,82.8,68.4,30.22,SSW,202,0.0,2.9,62,0.00,,,0.00,WUHU21523XXSP,2013-06-21 20:07:00,
2013-06-21 16:12:00,82.8,68.8,30.22,NNE,22,0.9,2.9,63,0.00,,,0.00,WUHU21523XXSP,2013-06-21 20:12:00,
2013-06-21 16:17:00,82.8,68.8,30.22,SW,225,0.0,0.9,63,0.00,,,0.00,WUHU21523XXSP,2013-06-21 20:17:00,
2013-06-21 16:22:00,82.6,68.2,30.22,SSW,202,0.7,0.7,62,0.00,,,0.00,WUHU21523XXSP,2013-06-21 20:22:00,
2013-06-21 16:27:00,82.8,68.4,30.22,ENE,67,4.5,4.5,62,0.00,,,0.00,WUHU21523XXSP,2013-06-21 20:27:00,
2013-06-21 16:32:00,82.6,67.7,30.22,SW,225,0.0,4.5,61,0.00,,,0.00,WUHU21523XXSP,2013-06-21 20:32:00,
2013-06-21 16:37:00,82.6,68.2,30.21,South,180,0.0,0.0,62,0.00,,,0.00,WUHU21523XXSP,2013-06-21 20:37:00,
2013-06-21 16:42:00,82.6,68.2,30.21,South,180,0.0,0.0,62,0.00,,,0.00,WUHU21523XXSP,2013-06-21 20:42:00,
2013-06-21 16:48:00,82.6,68.2,30.21,SW,225,3.8,3.8,62,0.00,,,0.00,WUHU21523XXSP,2013-06-21 20:48:00,
2013-06-21 16:57:00,82.4,68.0,30.21,South,180,4.3,4.3,62,0.00,,,0.00,WUHU21523XXSP,2013-06-21 20:57:00,
2013-06-21 17:02:00,82.0,67.7,30.21,SSE,157,2.9,4.3,62,0.00,,,0.00,WUHU21523XXSP,2013-06-21 21:02:00,
2013-06-21 17:07:00,82.0,67.7,30.21,ESE,112,0.0,2.9,62,0.00,,,0.00,WUHU21523XXSP,2013-06-21 21:07:00,
2013-06-21 17:12:00,81.9,68.0,30.21,West,265,0.4,2.9,63,0.00,,,0.00,WUHU21523XXSP,2013-06-21 21:12:00,
2013-06-21 17:17:00,81.7,67.4,30.21,ENE,61,0.8,2.5,62,0.00,,,0.00,WUHU21523XXSP,2013-06-21 21:17:00,
2013-06-21 17:22:00,81.5,67.2,30.20,SSW,202,0.0,2.5,62,0.00,,,0.00,WUHU21523XXSP,2013-06-21 21:22:00,
2013-06-21 17:27:00,81.1,66.9,30.20,SW,225,0.0,2.7,62,0.00,,,0.00,WUHU21523XXSP,2013-06-21 21:27:00,
2013-06-21 17:32:00,81.0,66.7,30.20,WNW,292,1.1,2.7,62,0.00,,,0.00,WUHU21523XXSP,2013-06-21 21:32:00,
2013-06-21 17:37:00,80.8,66.5,30.20,SW,225,0.9,1.1,62,0.00,,,0.00,WUHU21523XXSP,2013-06-21 21:37:00,
2013-06-21 17:42:00,80.4,66.7,30.20,WSW,247,1.8,1.8,63,0.00,,,0.00,WUHU21523XXSP,2013-06-21 21:42:00,
2013-06-21 17:47:00,80.4,66.7,30.20,ENE,67,2.0,2.0,63,0.00,,,0.00,WUHU21523XXSP,2013-06-21 21:47:00,
2013-06-21 17:52:00,80.2,66.5,30.19,NNE,22,0.0,2.0,63,0.00,,,0.00,WUHU21523XXSP,2013-06-21 21:52:00,
2013-06-21 17:57:00,80.2,66.5,30.20,SW,225,0.9,1.8,63,0.00,,,0.00,WUHU21523XXSP,2013-06-21 21:57:00,
2013-06-21 18:02:00,80.1,66.3,30.20,South,180,0.0,1.8,63,0.00,,,0.00,WUHU21523XXSP,2013-06-21 22:02:00,
2013-06-21 18:07:00,79.9,66.6,30.20,SSW,202,3.1,3.1,64,0.00,,,0.00,WUHU21523XXSP,2013-06-21 22:07:00,
2013-06-21 18:12:00,79.9,66.6,30.20,SW,225,0.0,3.1,64,0.00,,,0.00,WUHU21523XXSP,2013-06-21 22:12:00,
2013-06-21 18:17:00,79.7,66.4,30.20,South,180,0.0,2.0,64,0.00,,,0.00,WUHU21523XXSP,2013-06-21 22:17:00,
2013-06-21 18:27:00,79.5,66.7,30.20,SSW,202,1.3,1.3,65,0.00,,,0.00,WUHU21523XXSP,2013-06-21 22:27:00,
2013-06-21 18:32:00,79.3,66.5,30.20,SW,225,0.0,1.3,65,0.00,,,0.00,WUHU21523XXSP,2013-06-21 22:32:00,
2013-06-21 18:37:00,79.3,66.5,30.20,South,180,4.9,4.9,65,0.00,,,0.00,WUHU21523XXSP,2013-06-21 22:37:00,
2013-06-21 18:42:00,79.3,66.5,30.20,East,90,7.4,7.4,65,0.00,,,0.00,WUHU21523XXSP,2013-06-21 22:42:00,
2013-06-21 18:47:00,79.2,66.4,30.20,South,180,2.3,7.4,65,0.00,,,0.00,WUHU21523XXSP,2013-06-21 22:47:00,
2013-06-21 18:52:00,79.0,66.2,30.20,WSW,247,0.0,3.4,65,0.00,,,0.00,WUHU21523XXSP,2013-06-21 22:52:00,
2013-06-21 18:57:00,79.0,66.2,30.20,North,0,0.0,0.7,65,0.00,,,0.00,WUHU21523XXSP,2013-06-21 22:57:00,
2013-06-21 19:02:00,78.6,65.8,30.20,NE,45,0.7,0.7,65,0.00,,,0.00,WUHU21523XXSP,2013-06-21 23:02:00,
2013-06-21 19:07:00,78.6,65.8,30.19,SSW,202,0.0,0.7,65,0.00,,,0.00,WUHU21523XXSP,2013-06-21 23:07:00,
2013-06-21 19:12:00,78.6,65.8,30.20,NE,45,1.1,1.1,65,0.00,,,0.00,WUHU21523XXSP,2013-06-21 23:12:00,
2013-06-21 19:17:00,78.4,65.7,30.20,SSE,150,0.4,2.2,65,0.00,,,0.00,WUHU21523XXSP,2013-06-21 23:17:00,
2013-06-21 19:22:00,78.4,65.7,30.20,NE,45,0.7,2.2,65,0.00,,,0.00,WUHU21523XXSP,2013-06-21 23:22:00,
2013-06-21 19:27:00,78.1,65.3,30.19,NE,45,0.0,2.9,65,0.00,,,0.00,WUHU21523XXSP,2013-06-21 23:27:00,
2013-06-21 19:32:00,78.1,65.3,30.20,NE,45,0.0,2.9,65,0.00,,,0.00,WUHU21523XXSP,2013-06-21 23:32:00,
2013-06-21 19:37:00,78.1,65.3,30.20,NE,45,0.0,0.0,65,0.00,,,0.00,WUHU21523XXSP,2013-06-21 23:37:00,
2013-06-21 19:42:00,77.9,65.2,30.20,WSW,247,0.0,0.4,65,0.00,,,0.00,WUHU21523XXSP,2013-06-21 23:42:00,
2013-06-21 19:47:00,77.7,65.0,30.20,SW,225,0.0,0.4,65,0.00,,,0.00,WUHU21523XXSP,2013-06-21 23:47:00,
2013-06-21 19:52:00,77.7,65.0,30.20,SSW,202,0.0,0.0,65,0.00,,,0.00,WUHU21523XXSP,2013-06-21 23:52:00,
2013-06-21 19:57:00,77.5,65.3,30.20,South,180,0.0,0.0,66,0.00,,,0.00,WUHU21523XXSP,2013-06-21 23:57:00,
2013-06-21 20:02:00,77.5,65.3,30.20,South,180,0.0,0.0,66,0.00,,,0.00,WUHU21523XXSP,2013-06-22 00:02:00,
2013-06-21 20:07:00,77.4,65.1,30.20,NE,45,0.0,0.0,66,0.00,,,0.00,WUHU21523XXSP,2013-06-22 00:07:00,
2013-06-21 20:12:00,77.2,65.4,30.20,SSW,202,0.0,0.0,67,0.00,,,0.00,WUHU21523XXSP,2013-06-22 00:12:00,
2013-06-21 20:17:00,76.8,65.0,30.21,SSW,202,0.0,0.0,67,0.00,,,0.00,WUHU21523XXSP,2013-06-22 00:17:00,
2013-06-21 20:22:00,76.8,65.0,30.21,SSW,202,0.0,0.0,67,0.00,,,0.00,WUHU21523XXSP,2013-06-22 00:22:00,
2013-06-21 20:27:00,76.6,64.8,30.20,SSW,202,0.0,0.0,67,0.00,,,0.00,WUHU21523XXSP,2013-06-22 00:27:00,
2013-06-21 20:32:00,76.5,65.1,30.20,SSW,202,0.0,0.0,68,0.00,,,0.00,WUHU21523XXSP,2013-06-22 00:32:00,
2013-06-21 20:37:00,76.3,64.9,30.20,SSW,202,0.0,0.0,68,0.00,,,0.00,WUHU21523XXSP,2013-06-22 00:37:00,
2013-06-21 20:42:00,76.1,64.8,30.21,SSW,202,0.0,0.0,68,0.00,,,0.00,WUHU21523XXSP,2013-06-22 00:42:00,
2013-06-21 20:47:00,75.9,64.6,30.21,SSW,202,0.0,0.0,68,0.00,,,0.00,WUHU21523XXSP,2013-06-22 00:47:00,
2013-06-21 20:52:00,75.7,64.6,30.21,SSW,202,0.0,0.0,68,0.00,,,0.00,WUHU21523XXSP,2013-06-22 00:52:00,
2013-06-21 20:57:00,75.6,64.7,30.22,SSW,202,0.0,0.0,69,0.00,,,0.00,WUHU21523XXSP,2013-06-22 00:57:00,
2013-06-21 21:02:00,75.4,64.5,30.22,East,90,0.0,0.0,69,0.00,,,0.00,WUHU21523XXSP,2013-06-22 01:02:00,
2013-06-21 21:07:00,75.2,64.3,30.22,NE,45,2.2,2.2,69,0.00,,,0.00,WUHU21523XXSP,2013-06-22 01:07:00,
2013-06-21 21:12:00,75.0,64.1,30.22,SSW,202,0.0,2.2,69,0.00,,,0.00,WUHU21523XXSP,2013-06-22 01:12:00,
2013-06-21 21:17:00,75.0,64.1,30.22,SSW,202,0.0,1.1,69,0.00,,,0.00,WUHU21523XXSP,2013-06-22 01:17:00,
2013-06-21 21:22:00,74.8,64.0,30.22,SSW,202,0.0,0.0,69,0.00,,,0.00,WUHU21523XXSP,2013-06-22 01:22:00,
2013-06-21 21:27:00,74.5,64.1,30.22,SSW,202,0.0,0.0,70,0.00,,,0.00,WUHU21523XXSP,2013-06-22 01:27:00,
2013-06-21 21:32:00,74.5,64.1,30.22,SSW,202,0.0,0.0,70,0.00,,,0.00,WUHU21523XXSP,2013-06-22 01:32:00,
2013-06-21 21:37:00,74.3,64.0,30.22,SSW,202,0.0,0.0,70,0.00,,,0.00,WUHU21523XXSP,2013-06-22 01:37:00,
2013-06-21 21:42:00,73.9,63.6,30.22,SSW,202,0.0,0.0,70,0.00,,,0.00,WUHU21523XXSP,2013-06-22 01:42:00,
2013-06-21 21:47:00,73.8,63.5,30.22,SSW,202,0.0,0.0,70,0.00,,,0.00,WUHU21523XXSP,2013-06-22 01:47:00,
2013-06-21 21:52:00,73.6,63.7,30.22,SSW,202,0.0,0.0,71,0.00,,,0.00,WUHU21523XXSP,2013-06-22 01:52:00,
2013-06-21 21:57:00,73.2,63.3,30.23,SSW,202,0.0,0.0,71,0.00,,,0.00,WUHU21523XXSP,2013-06-22 01:57:00,
2013-06-21 22:02:00,73.2,63.3,30.23,SSW,202,0.0,0.0,71,0.00,,,0.00,WUHU21523XXSP,2013-06-22 02:02:00,
2013-06-21 22:07:00,73.0,63.2,30.23,SSW,202,0.0,0.0,71,0.00,,,0.00,WUHU21523XXSP,2013-06-22 02:07:00,
2013-06-21 22:12:00,72.7,62.8,30.23,SSW,202,0.0,0.0,71,0.00,,,0.00,WUHU21523XXSP,2013-06-22 02:12:00,
2013-06-21 22:17:00,72.5,63.0,30.23,SSW,202,0.0,0.0,72,0.00,,,0.00,WUHU21523XXSP,2013-06-22 02:17:00,
2013-06-21 22:22:00,72.3,62.8,30.24,SSW,202,0.0,0.0,72,0.00,,,0.00,WUHU21523XXSP,2013-06-22 02:22:00,
2013-06-21 22:27:00,72.1,62.6,30.24,SSW,202,0.0,0.0,72,0.00,,,0.00,WUHU21523XXSP,2013-06-22 02:27:00,
2013-06-21 22:32:00,72.0,62.5,30.24,SSW,202,0.0,0.0,72,0.00,,,0.00,WUHU21523XXSP,2013-06-22 02:32:00,
2013-06-21 22:37:00,71.8,62.7,30.24,SSW,202,0.0,0.0,73,0.00,,,0.00,WUHU21523XXSP,2013-06-22 02:37:00,
2013-06-21 22:42:00,71.8,62.3,30.24,SSW,202,0.0,0.0,72,0.00,,,0.00,WUHU21523XXSP,2013-06-22 02:42:00,
2013-06-21 22:47:00,71.6,62.1,30.24,SSW,202,0.0,0.0,72,0.00,,,0.00,WUHU21523XXSP,2013-06-22 02:47:00,
2013-06-21 22:52:00,71.4,61.9,30.24,SSW,202,0.0,0.0,72,0.00,,,0.00,WUHU21523XXSP,2013-06-22 02:52:00,
2013-06-21 22:57:00,71.1,61.9,30.24,SSW,202,0.0,0.0,73,0.00,,,0.00,WUHU21523XXSP,2013-06-22 02:57:00,
2013-06-21 23:02:00,70.9,62.1,30.24,SSW,202,0.0,0.0,74,0.00,,,0.00,WUHU21523XXSP,2013-06-22 03:02:00,
2013-06-21 23:07:00,70.9,62.1,30.24,SSW,202,10.1,10.1,74,0.00,,,0.00,WUHU21523XXSP,2013-06-22 03:07:00,
2013-06-21 23:12:00,70.7,62.0,30.25,SSW,202,0.0,10.1,74,0.00,,,0.00,WUHU21523XXSP,2013-06-22 03:12:00,
2013-06-21 23:17:00,70.5,62.2,30.25,SSW,202,20.1,20.1,75,0.00,,,0.00,WUHU21523XXSP,2013-06-22 03:17:00,
2013-06-21 23:22:00,70.3,62.0,30.25,SSW,202,0.0,20.1,75,0.00,,,0.00,WUHU21523XXSP,2013-06-22 03:22:00,
2013-06-21 23:27:00,70.3,62.0,30.25,SSW,202,0.0,0.0,75,0.00,,,0.00,WUHU21523XXSP,2013-06-22 03:27:00,
2013-06-21 23:32:00,70.2,62.2,30.24,SSW,202,0.0,0.0,76,0.00,,,0.00,WUHU21523XXSP,2013-06-22 03:32:00,
2013-06-21 23:37:00,70.0,62.0,30.24,SSW,202,18.8,18.8,76,0.00,,,0.00,WUHU21523XXSP,2013-06-22 03:37:00,
2013-06-21 23:42:00,69.6,61.6,30.25,SSW,202,17.4,18.8,76,0.00,,,0.00,WUHU21523XXSP,2013-06-22 03:42:00,
2013-06-21 23:47:00,69.6,62.0,30.25,SSW,202,30.2,30.2,77,0.00,,,0.00,WUHU21523XXSP,2013-06-22 03:47:00,
2013-06-21 23:52:00,69.6,62.0,30.25,SSW,202,15.9,30.2,77,0.00,,,0.00,WUHU21523XXSP,2013-06-22 03:52:00,
2013-06-21 23:57:00,69.4,61.9,30.25,SSW,202,0.0,31.8,77,0.00,,,0.00,WUHU21523XXSP,2013-06-22 03:57:00,